MDPP/POP METAR and TAF weather

Enter ICAO airport designator
Station Type Date Time Source
MDPP METAR 2021/09/20 03:00 UTC NOAA

MDPP 200300Z 00000KT 9999 FEW018 24/24 Q1014


Station Type Date Time Source
MDPP Decoded METAR 2021/09/20 03:00 UTC NOAA

Puerto Plata International, Dominican Republic (MDPP) 19-45N 070-33W
Sep 19, 2021 - 11:00 PM EDT / 2021.09.20 0300 UTC
Wind: Calm:0
Visibility: greater than 7 mile(s):0
Sky conditions: mostly clear
Temperature: 75 F (24 C)
Dew Point: 75 F (24 C)
Relative Humidity: 100%
Pressure (altimeter): 29.94 in. Hg (1014 hPa)
ob: MDPP 200300Z 00000KT 9999 FEW018 24/24 Q1014
cycle: 3

Station Type Date Time Source
MDPP TAF 2021/09/20 06:47 UTC NOAA

TAF MDPP 200400Z 2006/2106 00000KT 9999 FEW018
BECMG 2014/2016 09010KT

Example: see airport list